Time;durP1;ratioP1;P1;durP2;ratioP2;P2;SDS_P1;SDS_P2;PMS_P1;PMS_P2;Temp;Humidity;BMP_temperature;BMP_pressure;BME280_temperature;BME280_humidity;BME280_pressure;Samples;Min_cycle;Max_cycle;Signal;HPM_P1;HPM_P2
2023/12/02 00:02:23;;;;;;;17.10;11.68;;;0.60;99.90;;;;;;5053766;28;20704;-57
2023/12/02 00:04:50;;;;;;;16.67;12.10;;;0.50;99.90;;;;;;5053843;28;20210;-55
2023/12/02 00:07:18;;;;;;;15.60;12.80;;;0.50;99.90;;;;;;5053645;28;20206;-59
2023/12/02 00:09:45;;;;;;;14.13;11.30;;;0.50;99.90;;;;;;5053658;28;20242;-57
2023/12/02 00:12:11;;;;;;;20.27;11.10;;;0.50;99.90;;;;;;5053817;28;20209;-54
2023/12/02 00:14:38;;;;;;;14.20;10.63;;;0.50;99.90;;;;;;5053418;28;20746;-57
2023/12/02 00:17:05;;;;;;;13.82;11.10;;;0.50;99.90;;;;;;5053276;28;20206;-56
2023/12/02 00:19:33;;;;;;;14.63;11.48;;;0.50;99.90;;;;;;5052495;28;20246;-56
2023/12/02 00:22:00;;;;;;;15.95;11.40;;;0.50;99.90;;;;;;5052507;28;20222;-58
2023/12/02 00:24:28;;;;;;;15.02;10.98;;;0.50;99.90;;;;;;5052316;28;20657;-57
2023/12/02 00:26:54;;;;;;;14.25;11.70;;;0.50;99.90;;;;;;5052676;28;20210;-57
2023/12/02 00:29:21;;;;;;;11.68;10.48;;;0.50;99.90;;;;;;5051048;28;20232;-55
2023/12/02 00:31:48;;;;;;;13.82;10.25;;;0.50;99.90;;;;;;5053003;28;20205;-55
2023/12/02 00:34:15;;;;;;;12.27;10.05;;;0.50;99.90;;;;;;5053191;28;20232;-54
2023/12/02 00:36:46;;;;;;;14.10;10.13;;;0.50;99.90;;;;;;5053086;28;20206;-59
2023/12/02 00:39:12;;;;;;;16.10;10.45;;;0.50;99.90;;;;;;5052835;28;20218;-58
2023/12/02 00:41:40;;;;;;;15.95;11.63;;;0.50;99.90;;;;;;5053083;28;20226;-57
2023/12/02 00:44:06;;;;;;;16.40;10.38;;;0.40;99.90;;;;;;5053086;28;20613;-57
2023/12/02 00:46:33;;;;;;;18.65;11.50;;;0.40;99.90;;;;;;5052740;28;20212;-56
2023/12/02 00:49:00;;;;;;;15.00;10.70;;;0.50;99.90;;;;;;5050514;28;20325;-58
2023/12/02 00:51:27;;;;;;;16.52;10.98;;;0.50;99.90;;;;;;5051205;28;20226;-59
2023/12/02 00:53:55;;;;;;;18.85;11.82;;;0.40;99.90;;;;;;5052061;28;20217;-59
2023/12/02 00:56:22;;;;;;;13.32;10.95;;;0.40;99.90;;;;;;5052606;28;20207;-55
2023/12/02 00:58:48;;;;;;;12.52;11.25;;;0.40;99.90;;;;;;5052597;28;20252;-55
2023/12/02 01:01:15;;;;;;;12.02;10.30;;;0.40;99.90;;;;;;5052630;28;20232;-58
2023/12/02 01:03:42;;;;;;;21.33;12.02;;;0.40;99.90;;;;;;5052148;28;20710;-59
2023/12/02 01:06:09;;;;;;;12.15;9.63;;;0.40;99.90;;;;;;5052279;28;20764;-59
2023/12/02 01:08:36;;;;;;;15.00;11.27;;;0.40;99.90;;;;;;5052383;28;20229;-58
2023/12/02 01:11:05;;;;;;;14.63;9.75;;;0.40;99.90;;;;;;5052374;28;20201;-56
2023/12/02 01:13:32;;;;;;;12.98;11.52;;;0.40;99.90;;;;;;5052572;28;20211;-59
2023/12/02 01:15:59;;;;;;;17.65;10.90;;;0.40;99.90;;;;;;5052085;28;20214;-55
2023/12/02 01:18:25;;;;;;;16.35;11.75;;;0.40;99.90;;;;;;5051822;28;20293;-57
2023/12/02 01:20:52;;;;;;;17.52;13.30;;;0.40;99.90;;;;;;5051923;28;20325;-59
2023/12/02 01:23:19;;;;;;;17.70;12.05;;;0.40;99.90;;;;;;5052195;28;20221;-58
2023/12/02 01:25:46;;;;;;;13.40;9.88;;;0.40;99.90;;;;;;5051754;28;20676;-58
2023/12/02 01:28:14;;;;;;;14.00;10.30;;;0.40;99.90;;;;;;5051936;28;20202;-55
2023/12/02 01:30:41;;;;;;;14.27;9.45;;;0.40;99.90;;;;;;5050723;28;20573;-57
2023/12/02 01:33:08;;;;;;;17.83;12.25;;;0.40;99.90;;;;;;5050383;28;20202;-59
2023/12/02 01:35:34;;;;;;;15.55;12.60;;;0.40;99.90;;;;;;5051991;28;20216;-55
2023/12/02 01:38:01;;;;;;;15.63;10.15;;;0.40;99.90;;;;;;5051514;28;20198;-58
2023/12/02 01:40:28;;;;;;;16.00;11.20;;;0.30;99.90;;;;;;5051739;28;20313;-57
2023/12/02 01:42:55;;;;;;;13.93;10.63;;;0.40;99.90;;;;;;5051528;28;20772;-57
2023/12/02 01:45:23;;;;;;;17.15;10.48;;;0.30;99.90;;;;;;5051835;28;20206;-55
2023/12/02 01:47:51;;;;;;;11.25;10.05;;;0.40;99.90;;;;;;5051001;28;20621;-58
2023/12/02 01:50:19;;;;;;;13.32;10.05;;;0.40;99.90;;;;;;5051249;28;20313;-57
2023/12/02 01:52:46;;;;;;;15.98;10.23;;;0.40;99.90;;;;;;5051584;28;20203;-59
2023/12/02 01:55:13;;;;;;;12.25;11.05;;;0.40;99.90;;;;;;5051526;28;20258;-56
2023/12/02 01:57:40;;;;;;;15.07;11.80;;;0.40;99.90;;;;;;5051074;28;20327;-57
2023/12/02 02:00:09;;;;;;;16.58;11.63;;;0.40;99.90;;;;;;5051110;28;20645;-58
2023/12/02 02:02:37;;;;;;;12.85;9.90;;;0.30;99.90;;;;;;5051545;28;20226;-54
2023/12/02 02:05:05;;;;;;;13.27;9.63;;;0.40;99.90;;;;;;5051630;28;20207;-57
2023/12/02 02:07:32;;;;;;;11.00;9.00;;;0.40;99.90;;;;;;5051087;28;20236;-58
2023/12/02 02:09:59;;;;;;;12.05;9.15;;;0.30;99.90;;;;;;5049982;28;20288;-58
2023/12/02 02:12:26;;;;;;;12.20;10.10;;;0.40;99.90;;;;;;5051158;28;20584;-58
2023/12/02 02:14:53;;;;;;;15.65;11.40;;;0.40;99.90;;;;;;5050554;28;20298;-58
2023/12/02 02:17:20;;;;;;;15.07;10.55;;;0.40;99.90;;;;;;5051167;28;20206;-58
2023/12/02 02:19:48;;;;;;;12.48;8.82;;;0.40;99.90;;;;;;5050861;28;20226;-58
2023/12/02 02:22:16;;;;;;;18.42;10.60;;;0.40;99.90;;;;;;5050437;28;20313;-57
2023/12/02 02:24:43;;;;;;;16.25;10.20;;;0.30;99.90;;;;;;5050847;28;20213;-57
2023/12/02 02:27:10;;;;;;;16.65;11.35;;;0.30;99.90;;;;;;5050120;28;20289;-53
2023/12/02 02:29:37;;;;;;;16.70;10.02;;;0.30;99.90;;;;;;5049387;28;20230;-59
2023/12/02 02:32:04;;;;;;;17.92;10.88;;;0.30;99.90;;;;;;5050996;28;20247;-53
2023/12/02 02:34:31;;;;;;;18.40;10.85;;;0.30;99.90;;;;;;5051105;28;20210;-58
2023/12/02 02:36:58;;;;;;;13.02;9.43;;;0.30;99.90;;;;;;5050525;28;20298;-57
2023/12/02 02:39:26;;;;;;;14.32;10.30;;;0.30;99.90;;;;;;5050776;28;20311;-57
2023/12/02 02:41:54;;;;;;;10.65;8.52;;;0.30;99.90;;;;;;5050450;28;20230;-58
2023/12/02 02:44:21;;;;;;;14.40;10.25;;;0.30;99.90;;;;;;5050657;28;20676;-57
2023/12/02 02:46:48;;;;;;;12.77;10.23;;;0.30;99.90;;;;;;5050511;28;20211;-57
2023/12/02 02:49:14;;;;;;;12.82;7.93;;;0.30;99.90;;;;;;5050664;28;20236;-55
2023/12/02 02:51:42;;;;;;;16.45;10.18;;;0.30;99.90;;;;;;5050834;28;20785;-59
2023/12/02 02:54:08;;;;;;;12.13;9.50;;;0.30;99.90;;;;;;5050638;28;20226;-57
2023/12/02 02:56:37;;;;;;;14.00;10.20;;;0.30;99.90;;;;;;5050563;28;20210;-58
2023/12/02 02:59:04;;;;;;;10.88;9.70;;;0.30;99.90;;;;;;5050241;28;20226;-59
2023/12/02 03:01:31;;;;;;;11.88;8.30;;;0.20;99.90;;;;;;5049240;28;20230;-57
2023/12/02 03:03:57;;;;;;;13.35;9.48;;;0.30;99.90;;;;;;5050250;28;20294;-59
2023/12/02 03:06:25;;;;;;;13.15;9.32;;;0.30;99.90;;;;;;5050678;28;20217;-57
2023/12/02 03:08:52;;;;;;;13.77;9.50;;;0.20;99.90;;;;;;5049926;28;20240;-54
2023/12/02 03:11:20;;;;;;;14.75;10.10;;;0.20;99.90;;;;;;5050389;28;20301;-57
2023/12/02 03:13:48;;;;;;;15.00;9.05;;;0.20;99.90;;;;;;5050277;28;20292;-57
2023/12/02 03:16:15;;;;;;;18.73;9.90;;;0.20;99.90;;;;;;5050358;28;20292;-55
2023/12/02 03:18:42;;;;;;;11.68;9.55;;;0.20;99.90;;;;;;5050016;28;20229;-59
2023/12/02 03:21:09;;;;;;;11.77;9.07;;;0.20;99.90;;;;;;5050707;28;20202;-56
2023/12/02 03:23:35;;;;;;;16.58;10.93;;;0.20;99.90;;;;;;5049990;28;20240;-55
2023/12/02 03:26:02;;;;;;;14.73;10.50;;;0.20;99.90;;;;;;5050186;28;20284;-58
2023/12/02 03:28:29;;;;;;;16.75;10.65;;;0.20;99.90;;;;;;5049986;28;20206;-58
2023/12/02 03:30:58;;;;;;;12.65;8.93;;;0.20;99.90;;;;;;5050147;28;20206;-59
2023/12/02 03:33:24;;;;;;;14.75;11.68;;;0.20;99.90;;;;;;5050895;28;20197;-58
2023/12/02 03:35:51;;;;;;;10.68;9.00;;;0.20;99.90;;;;;;5051156;28;20209;-59
2023/12/02 03:38:18;;;;;;;14.40;10.18;;;0.20;99.90;;;;;;5050624;28;20213;-60
2023/12/02 03:40:45;;;;;;;11.80;8.38;;;0.20;99.90;;;;;;5051088;28;20206;-57
2023/12/02 03:43:12;;;;;;;12.90;9.50;;;0.20;99.90;;;;;;5051141;28;20230;-57
2023/12/02 03:45:38;;;;;;;12.75;9.93;;;0.20;99.90;;;;;;5051402;28;20568;-57
2023/12/02 03:48:07;;;;;;;16.65;9.90;;;0.20;99.90;;;;;;5050732;28;20218;-56
2023/12/02 03:50:34;;;;;;;14.02;9.20;;;0.20;99.90;;;;;;5050623;28;20241;-58
2023/12/02 03:53:01;;;;;;;11.75;8.35;;;0.20;99.90;;;;;;5051142;28;20577;-57
2023/12/02 03:55:28;;;;;;;11.65;8.50;;;0.10;99.90;;;;;;5050873;28;20206;-59
2023/12/02 03:57:55;;;;;;;14.70;10.45;;;0.20;99.90;;;;;;5050507;28;20580;-58
2023/12/02 04:00:22;;;;;;;14.25;8.07;;;0.20;99.90;;;;;;5050733;28;20226;-58
2023/12/02 04:02:49;;;;;;;12.27;9.25;;;0.20;99.90;;;;;;5049928;28;20230;-59
2023/12/02 04:05:17;;;;;;;17.23;12.45;;;0.10;99.90;;;;;;5050549;28;20699;-57
2023/12/02 04:07:44;;;;;;;11.98;9.75;;;0.10;99.90;;;;;;5050447;28;20689;-59
2023/12/02 04:10:11;;;;;;;16.58;11.65;;;0.10;99.90;;;;;;5050721;28;20226;-58
2023/12/02 04:12:37;;;;;;;17.50;11.02;;;0.10;99.90;;;;;;5051673;28;20199;-57
2023/12/02 04:15:06;;;;;;;14.43;10.80;;;0.10;99.90;;;;;;5054322;28;20217;-57
2023/12/02 04:17:33;;;;;;;14.00;11.10;;;0.10;99.90;;;;;;5054048;28;20681;-59
2023/12/02 04:20:00;;;;;;;15.38;9.10;;;0.10;99.90;;;;;;5054333;28;20226;-53
2023/12/02 04:22:29;;;;;;;17.30;11.50;;;0.10;99.90;;;;;;5054059;28;20226;-57
2023/12/02 04:24:55;;;;;;;12.68;10.25;;;0.10;99.90;;;;;;5054165;28;20206;-54
2023/12/02 04:27:22;;;;;;;16.10;12.38;;;0.10;99.90;;;;;;5053668;28;20301;-59
2023/12/02 04:29:49;;;;;;;14.95;10.05;;;0.10;99.90;;;;;;5053985;28;20231;-56
2023/12/02 04:32:16;;;;;;;13.63;10.18;;;0.10;99.90;;;;;;5054240;28;20212;-56
2023/12/02 04:34:43;;;;;;;16.05;11.23;;;0.10;99.90;;;;;;5054137;28;20630;-57
2023/12/02 04:37:10;;;;;;;13.75;10.43;;;0.10;99.90;;;;;;5053544;28;20211;-57
2023/12/02 04:39:38;;;;;;;15.00;9.82;;;0.10;99.90;;;;;;5053907;28;20226;-57
2023/12/02 04:42:05;;;;;;;13.23;9.32;;;0.10;99.90;;;;;;5053670;28;20234;-58
2023/12/02 04:44:33;;;;;;;12.52;8.52;;;0.10;99.90;;;;;;5053929;28;20202;-58
2023/12/02 04:47:00;;;;;;;13.23;9.50;;;0.10;99.90;;;;;;5053346;28;20210;-57
2023/12/02 04:49:27;;;;;;;11.07;8.55;;;0.10;99.90;;;;;;5053493;28;20244;-57
2023/12/02 04:51:54;;;;;;;13.73;9.38;;;0.10;99.90;;;;;;5053861;28;20206;-57
2023/12/02 04:54:21;;;;;;;17.50;10.50;;;0.10;99.90;;;;;;5053016;28;20202;-55
2023/12/02 04:56:49;;;;;;;14.75;9.95;;;0.10;99.90;;;;;;5053185;28;20216;-58
2023/12/02 04:59:16;;;;;;;16.20;10.70;;;0.00;99.90;;;;;;5052844;28;20226;-57
2023/12/02 05:01:43;;;;;;;16.08;9.00;;;0.00;99.90;;;;;;5052635;28;20773;-58
2023/12/02 05:04:10;;;;;;;13.23;9.25;;;0.00;99.90;;;;;;5053176;28;20290;-58
2023/12/02 05:06:38;;;;;;;12.23;9.45;;;0.00;99.90;;;;;;5051959;28;20296;-58
2023/12/02 05:09:06;;;;;;;14.75;11.30;;;0.00;99.90;;;;;;5051909;28;20233;-58
2023/12/02 05:11:33;;;;;;;16.63;11.00;;;0.00;99.90;;;;;;5053280;28;20585;-57
2023/12/02 05:14:01;;;;;;;14.00;9.90;;;0.00;99.90;;;;;;5053370;28;20217;-58
2023/12/02 05:16:28;;;;;;;12.55;8.48;;;0.00;99.90;;;;;;5052811;28;20619;-57
2023/12/02 05:18:55;;;;;;;14.35;8.63;;;0.00;99.90;;;;;;5052878;28;20227;-58
2023/12/02 05:21:22;;;;;;;12.95;9.40;;;0.00;99.90;;;;;;5052816;28;20212;-58
2023/12/02 05:23:48;;;;;;;10.43;7.82;;;0.00;99.90;;;;;;5052029;28;20226;-56
2023/12/02 05:26:15;;;;;;;13.75;9.10;;;0.00;99.90;;;;;;5052853;28;20206;-58
2023/12/02 05:28:43;;;;;;;11.40;8.50;;;0.00;99.90;;;;;;5052876;28;20226;-56
2023/12/02 05:31:11;;;;;;;11.60;7.78;;;0.00;99.90;;;;;;5053093;28;20217;-57
2023/12/02 05:33:38;;;;;;;10.75;7.90;;;0.00;99.90;;;;;;5053010;28;20289;-57
2023/12/02 05:36:05;;;;;;;13.07;8.40;;;0.00;99.90;;;;;;5052937;28;20365;-56
2023/12/02 05:38:32;;;;;;;12.18;8.85;;;0.00;99.90;;;;;;5052790;28;20314;-59
2023/12/02 05:40:59;;;;;;;9.35;8.43;;;0.00;99.90;;;;;;5052447;28;20305;-58
2023/12/02 05:43:25;;;;;;;13.23;9.40;;;0.00;99.90;;;;;;5052801;28;20233;-59
2023/12/02 05:45:52;;;;;;;12.57;9.88;;;0.00;99.90;;;;;;5052562;28;20210;-57
2023/12/02 05:48:20;;;;;;;11.18;9.02;;;0.00;99.90;;;;;;5052451;28;20218;-58
2023/12/02 05:50:47;;;;;;;11.45;9.70;;;0.00;99.90;;;;;;5052371;28;20757;-56
2023/12/02 05:53:14;;;;;;;14.32;9.15;;;0.00;99.90;;;;;;5052707;28;20209;-58
2023/12/02 05:55:41;;;;;;;11.60;9.57;;;0.00;99.90;;;;;;5052614;28;20301;-57
2023/12/02 05:58:08;;;;;;;12.88;8.27;;;0.00;99.90;;;;;;5052240;28;20302;-56
2023/12/02 06:00:35;;;;;;;14.68;10.75;;;0.00;99.90;;;;;;5052387;28;20222;-57
2023/12/02 06:03:02;;;;;;;16.00;9.13;;;0.00;99.90;;;;;;5052046;28;20226;-58
2023/12/02 06:05:31;;;;;;;11.82;8.52;;;0.00;99.90;;;;;;5052171;28;20210;-56
2023/12/02 06:07:58;;;;;;;15.98;10.57;;;0.00;99.90;;;;;;5052264;28;20202;-57
2023/12/02 06:10:24;;;;;;;13.70;9.30;;;0.00;99.90;;;;;;5051978;28;20585;-58
2023/12/02 06:12:51;;;;;;;11.93;8.70;;;0.00;99.90;;;;;;5052457;28;20293;-58
2023/12/02 06:15:19;;;;;;;10.38;8.57;;;0.00;99.90;;;;;;5052006;28;20213;-56
2023/12/02 06:17:46;;;;;;;11.35;7.57;;;0.00;99.90;;;;;;5051548;28;20211;-57
2023/12/02 06:20:13;;;;;;;12.77;8.02;;;-0.10;99.90;;;;;;5051114;28;20221;-58
2023/12/02 06:22:41;;;;;;;15.85;9.05;;;-0.10;99.90;;;;;;5051328;28;20722;-57
2023/12/02 06:25:09;;;;;;;13.40;9.05;;;-0.10;99.90;;;;;;5051773;28;20305;-57
2023/12/02 06:27:36;;;;;;;9.85;8.05;;;-0.10;99.90;;;;;;5051614;28;20630;-55
2023/12/02 06:30:04;;;;;;;12.35;8.80;;;-0.10;99.90;;;;;;5051603;28;20308;-59
2023/12/02 06:32:31;;;;;;;14.10;9.90;;;-0.10;99.90;;;;;;5051589;28;20212;-56
2023/12/02 06:34:58;;;;;;;13.18;7.55;;;-0.10;99.90;;;;;;5051489;28;20606;-58
2023/12/02 06:37:25;;;;;;;11.15;8.40;;;-0.10;99.90;;;;;;5051757;28;20216;-57
2023/12/02 06:39:53;;;;;;;10.60;8.30;;;-0.10;99.90;;;;;;5051742;28;20222;-58
2023/12/02 06:42:20;;;;;;;12.45;8.43;;;-0.10;99.90;;;;;;5051403;28;20220;-55
2023/12/02 06:44:47;;;;;;;12.60;9.13;;;-0.10;99.90;;;;;;5051668;28;20635;-58
2023/12/02 06:47:14;;;;;;;9.98;8.32;;;-0.10;99.90;;;;;;5051717;28;20210;-59
2023/12/02 06:49:41;;;;;;;12.30;10.98;;;-0.10;99.90;;;;;;5051535;28;20700;-59
2023/12/02 06:52:08;;;;;;;11.82;8.10;;;-0.10;99.90;;;;;;5051527;28;20214;-55
2023/12/02 06:54:36;;;;;;;10.30;8.77;;;-0.10;99.90;;;;;;5051459;28;20591;-56
2023/12/02 06:57:05;;;;;;;11.50;7.35;;;-0.10;99.90;;;;;;5051221;28;20210;-57
2023/12/02 06:59:32;;;;;;;12.73;9.27;;;0.00;99.90;;;;;;5051179;28;20234;-55
2023/12/02 07:01:59;;;;;;;14.48;7.30;;;-0.10;99.90;;;;;;5051488;28;20209;-59
2023/12/02 07:04:27;;;;;;;9.23;7.95;;;-0.10;99.90;;;;;;5051316;28;20234;-56
2023/12/02 07:06:54;;;;;;;9.45;8.43;;;-0.10;99.90;;;;;;5051096;28;20758;-57
2023/12/02 07:09:21;;;;;;;10.80;7.47;;;-0.10;99.90;;;;;;5051003;28;20226;-57
2023/12/02 07:11:47;;;;;;;9.07;7.60;;;-0.10;99.90;;;;;;5050909;28;20692;-58
2023/12/02 07:14:16;;;;;;;12.57;8.38;;;-0.10;99.90;;;;;;5051181;28;20210;-58
2023/12/02 07:16:42;;;;;;;14.48;9.30;;;-0.10;99.90;;;;;;5051062;28;20293;-54
2023/12/02 07:19:09;;;;;;;11.95;8.20;;;-0.10;99.90;;;;;;5051113;28;20233;-57
2023/12/02 07:21:36;;;;;;;9.93;7.97;;;-0.10;99.90;;;;;;5051293;28;20206;-59
2023/12/02 07:24:03;;;;;;;11.65;7.93;;;-0.10;99.90;;;;;;5051171;28;20226;-57
2023/12/02 07:26:30;;;;;;;9.85;8.88;;;-0.10;99.90;;;;;;5051095;28;20210;-57
2023/12/02 07:28:56;;;;;;;11.60;9.07;;;-0.10;99.90;;;;;;5050765;28;20222;-56
2023/12/02 07:31:25;;;;;;;11.10;10.00;;;-0.10;99.90;;;;;;5051136;28;20297;-54
2023/12/02 07:33:51;;;;;;;16.85;12.10;;;-0.10;99.90;;;;;;5051214;28;20587;-58
2023/12/02 07:36:18;;;;;;;15.60;11.70;;;-0.10;99.90;;;;;;5050940;28;20214;-58
2023/12/02 07:38:45;;;;;;;12.73;10.35;;;-0.10;99.90;;;;;;5050611;28;20226;-58
2023/12/02 07:41:12;;;;;;;12.80;10.40;;;-0.20;99.90;;;;;;5050922;28;20256;-57
2023/12/02 07:43:39;;;;;;;17.23;10.02;;;-0.20;99.90;;;;;;5051060;28;20313;-57
2023/12/02 07:46:06;;;;;;;21.58;11.25;;;-0.20;99.90;;;;;;5051129;28;20218;-57
2023/12/02 07:48:35;;;;;;;17.15;11.60;;;-0.20;99.90;;;;;;5053283;28;20320;-57
2023/12/02 07:51:04;;;;;;;14.13;10.80;;;-0.20;99.90;;;;;;5054919;28;20206;-56
2023/12/02 07:53:31;;;;;;;17.80;10.95;;;-0.20;99.90;;;;;;5054496;28;20198;-58
2023/12/02 07:55:57;;;;;;;18.13;12.45;;;-0.20;99.90;;;;;;5054677;28;20212;-57
2023/12/02 07:58:24;;;;;;;13.80;10.93;;;-0.20;99.90;;;;;;5054532;28;20202;-58
2023/12/02 08:00:51;;;;;;;18.60;11.27;;;-0.20;99.90;;;;;;5054730;28;20577;-58
2023/12/02 08:03:18;;;;;;;16.63;12.88;;;-0.20;99.90;;;;;;5054703;28;20237;-56
2023/12/02 08:05:47;;;;;;;19.30;12.63;;;-0.20;99.90;;;;;;5054415;28;20222;-59
2023/12/02 08:08:13;;;;;;;18.08;13.50;;;-0.20;99.90;;;;;;5054133;28;20221;-57
2023/12/02 08:10:40;;;;;;;18.70;12.02;;;-0.10;99.90;;;;;;5054556;28;20296;-57
2023/12/02 08:13:07;;;;;;;18.00;13.95;;;-0.10;99.90;;;;;;5054292;28;20686;-60
2023/12/02 08:15:34;;;;;;;13.73;10.38;;;-0.10;99.90;;;;;;5054535;28;20206;-60
2023/12/02 08:18:01;;;;;;;17.23;10.48;;;-0.10;99.90;;;;;;5053682;28;20213;-59
2023/12/02 08:20:29;;;;;;;11.25;10.10;;;-0.10;99.90;;;;;;5054017;28;20313;-57
2023/12/02 08:22:57;;;;;;;15.65;11.73;;;-0.10;99.90;;;;;;5054030;28;20232;-55
2023/12/02 08:25:24;;;;;;;14.88;10.05;;;-0.10;99.90;;;;;;5054184;28;20206;-59
2023/12/02 08:27:51;;;;;;;16.92;10.63;;;0.00;99.90;;;;;;5053644;28;20210;-57
2023/12/02 08:30:18;;;;;;;14.73;9.50;;;0.00;99.90;;;;;;5052707;28;20341;-58
2023/12/02 08:32:45;;;;;;;18.60;11.00;;;0.00;99.90;;;;;;5053763;28;20246;-60
2023/12/02 08:35:12;;;;;;;13.43;10.57;;;0.00;99.90;;;;;;5054062;28;20202;-57
2023/12/02 08:37:39;;;;;;;15.30;9.82;;;0.00;99.90;;;;;;5053533;28;20206;-59
2023/12/02 08:40:08;;;;;;;14.75;10.80;;;0.00;99.90;;;;;;5053634;28;20723;-57
2023/12/02 08:42:35;;;;;;;20.30;12.38;;;0.00;99.90;;;;;;5053926;28;20207;-59
2023/12/02 08:45:03;;;;;;;13.30;10.85;;;0.00;99.90;;;;;;5053587;28;20712;-57
2023/12/02 08:47:31;;;;;;;14.20;9.50;;;-0.10;99.90;;;;;;5053400;28;20221;-57
2023/12/02 08:49:58;;;;;;;14.65;10.65;;;-0.10;99.90;;;;;;5053295;28;20324;-57
2023/12/02 08:52:25;;;;;;;9.38;7.78;;;-0.10;99.90;;;;;;5053460;28;20373;-57
2023/12/02 08:54:52;;;;;;;13.85;8.68;;;-0.10;99.90;;;;;;5053516;28;20669;-59
2023/12/02 08:57:20;;;;;;;14.02;10.38;;;0.00;99.90;;;;;;5053056;28;20741;-59
2023/12/02 08:59:47;;;;;;;12.50;9.77;;;0.00;99.90;;;;;;5053077;28;20222;-59
2023/12/02 09:02:13;;;;;;;16.25;11.40;;;0.00;99.90;;;;;;5052967;28;20205;-57
2023/12/02 09:04:40;;;;;;;13.50;9.45;;;0.00;99.90;;;;;;5053038;28;20226;-57
2023/12/02 09:07:07;;;;;;;11.30;10.15;;;0.00;99.90;;;;;;5053182;28;20218;-57
2023/12/02 09:09:34;;;;;;;12.13;9.18;;;0.00;99.90;;;;;;5053120;28;20608;-56
2023/12/02 09:12:01;;;;;;;12.65;8.68;;;0.00;99.90;;;;;;5053162;28;20207;-59
2023/12/02 09:14:29;;;;;;;13.13;9.85;;;0.00;99.90;;;;;;5053252;28;20198;-59
2023/12/02 09:16:56;;;;;;;11.95;8.90;;;0.00;99.90;;;;;;5052700;28;20233;-56
2023/12/02 09:19:52;;;;;;;11.60;8.55;;;0.00;99.90;;;;;;5053132;28;20228;-59
2023/12/02 09:22:44;;;;;;;7.78;6.70;;;0.00;99.90;;;;;;5048276;28;20217;-59
2023/12/02 09:25:25;;;;;;;8.55;7.65;;;0.00;99.90;;;;;;5051752;28;20231;-56
2023/12/02 09:28:14;;;;;;;8.20;7.40;;;0.00;99.90;;;;;;5051174;28;20214;-59
2023/12/02 09:30:55;;;;;;;8.50;7.70;;;0.00;99.90;;;;;;5052065;28;20206;-59
2023/12/02 09:33:22;;;;;;;12.18;8.40;;;0.00;99.90;;;;;;5050895;28;20289;-58
2023/12/02 09:35:54;;;;;;;12.50;8.90;;;-0.10;99.90;;;;;;5051520;28;20683;-59
2023/12/02 09:38:21;;;;;;;11.23;8.63;;;0.00;99.90;;;;;;5052321;28;20209;-59
2023/12/02 09:41:14;;;;;;;15.35;10.55;;;-0.10;99.90;;;;;;5051023;28;20216;-59
2023/12/02 09:43:52;;;;;;;10.32;8.25;;;-0.10;99.90;;;;;;5050699;28;20261;-57
2023/12/02 09:46:27;;;;;;;10.60;7.82;;;-0.10;99.90;;;;;;5044088;28;20216;-58
2023/12/02 09:49:34;;;;;;;10.93;8.75;;;0.00;99.90;;;;;;5051932;28;20237;-59
2023/12/02 09:52:16;;;;;;;8.32;6.47;;;-0.10;99.90;;;;;;5051523;28;20209;-59
2023/12/02 09:54:54;;;;;;;8.38;7.68;;;-0.10;99.90;;;;;;5052308;28;20289;-58
2023/12/02 09:57:32;;;;;;;8.30;7.43;;;0.00;99.90;;;;;;5046802;28;20301;-57
2023/12/02 10:00:09;;;;;;;10.88;9.05;;;0.00;99.90;;;;;;5051720;28;20226;-59
2023/12/02 10:02:51;;;;;;;14.82;10.10;;;0.00;99.90;;;;;;5051722;28;20210;-58
2023/12/02 10:05:19;;;;;;;17.98;12.45;;;0.00;99.90;;;;;;5043772;28;20233;-58
2023/12/02 10:08:05;;;;;;;12.43;9.35;;;0.10;99.90;;;;;;5050779;28;20732;-55
2023/12/02 10:10:43;;;;;;;11.50;10.30;;;0.10;99.90;;;;;;5045384;28;20223;-57
2023/12/02 10:13:20;;;;;;;12.52;11.13;;;0.20;99.90;;;;;;5049779;28;20665;-59
2023/12/02 10:15:49;;;;;;;11.82;9.63;;;0.20;99.90;;;;;;5051489;28;20610;-60
2023/12/02 10:18:18;;;;;;;12.05;9.98;;;0.20;99.90;;;;;;5051189;28;20199;-58
2023/12/02 10:20:49;;;;;;;10.93;9.77;;;0.20;99.90;;;;;;5051518;28;20207;-58
2023/12/02 10:23:25;;;;;;;10.05;8.85;;;0.30;99.90;;;;;;5051324;28;20731;-57
2023/12/02 10:26:04;;;;;;;11.35;9.00;;;0.30;99.90;;;;;;5050649;28;20206;-59
2023/12/02 10:28:44;;;;;;;7.32;6.60;;;0.20;99.90;;;;;;5046792;28;20230;-57
2023/12/02 10:31:18;;;;;;;9.75;7.43;;;0.20;99.90;;;;;;5049982;28;20209;-57
2023/12/02 10:34:05;;;;;;;9.02;6.55;;;0.20;99.90;;;;;;5051426;28;20208;-59
2023/12/02 10:36:34;;;;;;;7.35;6.60;;;0.20;99.90;;;;;;5044955;28;21339;-57
2023/12/02 10:39:09;;;;;;;8.27;6.25;;;0.30;99.90;;;;;;5050843;28;20313;-59
2023/12/02 10:41:43;;;;;;;6.38;5.78;;;0.30;99.90;;;;;;5048921;28;20218;-60
2023/12/02 10:44:11;;;;;;;6.65;5.43;;;0.40;99.90;;;;;;5048786;28;20742;-58
2023/12/02 10:46:42;;;;;;;7.20;6.22;;;0.30;99.90;;;;;;5049967;28;20206;-59
2023/12/02 10:49:12;;;;;;;9.52;6.05;;;0.30;99.90;;;;;;5050203;28;20601;-59
2023/12/02 10:51:42;;;;;;;6.18;5.65;;;0.30;99.90;;;;;;5050358;28;20217;-57
2023/12/02 10:54:10;;;;;;;7.25;6.22;;;0.30;99.90;;;;;;5049609;28;20220;-59
2023/12/02 10:56:40;;;;;;;6.72;5.80;;;0.30;99.90;;;;;;5049927;28;20696;-58
2023/12/02 10:59:07;;;;;;;6.68;6.13;;;0.20;99.90;;;;;;5047773;28;20228;-56
2023/12/02 11:01:39;;;;;;;8.55;6.78;;;0.30;99.90;;;;;;5050569;28;20602;-57
2023/12/02 11:04:17;;;;;;;8.93;7.78;;;0.30;99.90;;;;;;5050322;28;20228;-59
2023/12/02 11:06:51;;;;;;;6.32;5.13;;;0.30;99.90;;;;;;5049936;28;20702;-57
2023/12/02 11:09:29;;;;;;;7.60;6.90;;;0.30;99.90;;;;;;5050379;28;20222;-56
2023/12/02 11:12:04;;;;;;;7.55;6.85;;;0.40;99.90;;;;;;5050505;28;20293;-58
2023/12/02 11:14:40;;;;;;;6.78;6.18;;;0.40;99.90;;;;;;5050671;28;20210;-56
2023/12/02 11:17:16;;;;;;;6.85;6.03;;;0.40;99.90;;;;;;5050206;28;20206;-59
2023/12/02 11:20:08;;;;;;;5.88;5.38;;;0.40;99.90;;;;;;5050229;28;20264;-57
2023/12/02 11:23:10;;;;;;;7.20;6.45;;;0.40;99.90;;;;;;5036862;28;20577;-57
2023/12/02 11:25:50;;;;;;;7.63;6.68;;;0.30;99.90;;;;;;5052757;28;20596;-57
2023/12/02 11:28:23;;;;;;;6.90;6.10;;;0.30;99.90;;;;;;5037523;28;20691;-56
2023/12/02 11:31:02;;;;;;;6.05;5.45;;;0.20;99.90;;;;;;5054587;28;20210;-58
2023/12/02 11:33:38;;;;;;;8.45;6.15;;;0.20;99.90;;;;;;5054442;28;20297;-57
2023/12/02 11:36:13;;;;;;;7.10;6.43;;;0.10;99.90;;;;;;5054077;28;20212;-58
2023/12/02 11:38:54;;;;;;;6.05;5.45;;;0.10;99.90;;;;;;5053745;28;20618;-59
2023/12/02 11:41:28;;;;;;;8.15;6.18;;;0.00;99.90;;;;;;5046235;28;20198;-58
2023/12/02 11:44:12;;;;;;;7.57;6.95;;;0.00;99.90;;;;;;5053867;28;20229;-56
2023/12/02 11:46:50;;;;;;;7.47;6.78;;;0.00;99.90;;;;;;5054027;28;20356;-57
2023/12/02 11:49:29;;;;;;;11.25;7.00;;;-0.10;99.90;;;;;;5053899;28;20234;-56
2023/12/02 11:52:09;;;;;;;7.40;5.35;;;-0.10;99.90;;;;;;5053999;28;20319;-59
2023/12/02 11:54:49;;;;;;;6.10;5.50;;;0.00;99.90;;;;;;5053817;28;20759;-60
2023/12/02 11:57:30;;;;;;;6.85;5.63;;;0.00;99.90;;;;;;5053337;28;20205;-59
2023/12/02 12:00:06;;;;;;;6.25;5.15;;;-0.10;99.90;;;;;;5054035;28;20575;-59
2023/12/02 12:02:58;;;;;;;7.43;6.32;;;-0.10;99.90;;;;;;5053875;28;20275;-60
2023/12/02 12:05:37;;;;;;;5.15;4.80;;;-0.10;99.90;;;;;;5050086;28;20348;-60
2023/12/02 12:08:13;;;;;;;6.07;5.68;;;-0.10;99.90;;;;;;5037862;28;20198;-58
2023/12/02 12:10:41;;;;;;;8.75;6.43;;;-0.10;99.90;;;;;;5054098;28;20216;-55
2023/12/02 12:13:11;;;;;;;8.18;6.70;;;-0.10;99.90;;;;;;5053830;28;20310;-56
2023/12/02 12:15:39;;;;;;;7.88;6.63;;;-0.20;99.90;;;;;;5053372;28;20202;-59
2023/12/02 12:18:05;;;;;;;6.75;6.03;;;-0.20;99.90;;;;;;5053286;28;20565;-60
2023/12/02 12:20:32;;;;;;;6.30;5.70;;;-0.20;99.90;;;;;;5053849;28;20594;-57
2023/12/02 12:22:59;;;;;;;6.13;5.43;;;-0.20;99.90;;;;;;5052952;28;20198;-59
2023/12/02 12:25:29;;;;;;;6.07;5.07;;;-0.20;99.90;;;;;;5052896;28;20321;-58
2023/12/02 12:28:02;;;;;;;5.57;5.18;;;-0.30;99.90;;;;;;5051364;28;20627;-59
2023/12/02 12:30:42;;;;;;;7.00;6.30;;;-0.30;99.90;;;;;;5049925;28;20237;-60
2023/12/02 12:33:11;;;;;;;6.18;5.03;;;-0.20;99.90;;;;;;5050803;28;20210;-57
2023/12/02 12:35:38;;;;;;;5.55;5.05;;;-0.20;99.90;;;;;;5051733;28;20206;-58
2023/12/02 12:38:06;;;;;;;5.28;4.78;;;-0.20;99.90;;;;;;5052786;28;20229;-59
2023/12/02 12:40:36;;;;;;;5.75;5.28;;;-0.20;99.90;;;;;;5052152;28;20628;-59
2023/12/02 12:43:03;;;;;;;4.82;4.43;;;-0.20;99.90;;;;;;5053121;28;20621;-60
2023/12/02 12:45:32;;;;;;;14.07;6.13;;;-0.20;99.90;;;;;;5052215;28;20230;-60
2023/12/02 12:48:00;;;;;;;8.15;5.88;;;-0.30;99.90;;;;;;5051313;28;20703;-59
2023/12/02 12:50:30;;;;;;;6.60;5.05;;;-0.20;99.90;;;;;;5050838;28;20231;-57
2023/12/02 12:53:03;;;;;;;5.88;5.43;;;-0.20;99.90;;;;;;5052106;28;20199;-59
2023/12/02 12:55:31;;;;;;;6.10;4.93;;;-0.20;99.90;;;;;;5052065;28;20294;-60